sensor_id;sensor_type;location;lat;lon;timestamp;temperature;humidity
22418;DHT22;11376;50.932;4.442;2023-04-19T00:00:59;9.70;99.90
22418;DHT22;11376;50.932;4.442;2023-04-19T00:03:26;9.70;99.90
22418;DHT22;11376;50.932;4.442;2023-04-19T00:05:52;9.60;99.90
22418;DHT22;11376;50.932;4.442;2023-04-19T00:08:23;9.60;99.90
22418;DHT22;11376;50.932;4.442;2023-04-19T00:10:49;9.60;99.90
22418;DHT22;11376;50.932;4.442;2023-04-19T00:13:15;9.60;99.90
22418;DHT22;11376;50.932;4.442;2023-04-19T00:15:40;9.60;99.90
22418;DHT22;11376;50.932;4.442;2023-04-19T00:18:06;9.50;99.90
22418;DHT22;11376;50.932;4.442;2023-04-19T00:20:31;9.40;99.90
22418;DHT22;11376;50.932;4.442;2023-04-19T00:22:57;9.40;99.90
22418;DHT22;11376;50.932;4.442;2023-04-19T00:25:24;9.50;99.90
22418;DHT22;11376;50.932;4.442;2023-04-19T00:27:49;9.40;99.90
22418;DHT22;11376;50.932;4.442;2023-04-19T00:30:15;9.40;99.90
22418;DHT22;11376;50.932;4.442;2023-04-19T00:32:40;9.40;99.90
22418;DHT22;11376;50.932;4.442;2023-04-19T00:35:06;9.40;99.90
22418;DHT22;11376;50.932;4.442;2023-04-19T00:37:32;9.40;99.90
22418;DHT22;11376;50.932;4.442;2023-04-19T00:39:57;9.30;99.90
22418;DHT22;11376;50.932;4.442;2023-04-19T00:42:23;9.40;99.90
22418;DHT22;11376;50.932;4.442;2023-04-19T00:44:48;9.30;99.90
22418;DHT22;11376;50.932;4.442;2023-04-19T00:47:14;9.30;99.90
22418;DHT22;11376;50.932;4.442;2023-04-19T00:49:40;9.30;99.90
22418;DHT22;11376;50.932;4.442;2023-04-19T00:52:06;9.30;99.90
22418;DHT22;11376;50.932;4.442;2023-04-19T00:54:32;9.30;99.90
22418;DHT22;11376;50.932;4.442;2023-04-19T00:56:58;9.20;99.90
22418;DHT22;11376;50.932;4.442;2023-04-19T00:59:24;9.10;99.90
22418;DHT22;11376;50.932;4.442;2023-04-19T01:01:50;9.20;99.90
22418;DHT22;11376;50.932;4.442;2023-04-19T01:04:15;9.20;99.90
22418;DHT22;11376;50.932;4.442;2023-04-19T01:06:41;9.10;99.90
22418;DHT22;11376;50.932;4.442;2023-04-19T01:09:07;9.10;99.90
22418;DHT22;11376;50.932;4.442;2023-04-19T01:11:33;9.10;99.90
22418;DHT22;11376;50.932;4.442;2023-04-19T01:13:59;9.20;99.90
22418;DHT22;11376;50.932;4.442;2023-04-19T01:16:25;9.10;99.90
22418;DHT22;11376;50.932;4.442;2023-04-19T01:18:51;9.00;99.90
22418;DHT22;11376;50.932;4.442;2023-04-19T01:21:17;9.10;99.90
22418;DHT22;11376;50.932;4.442;2023-04-19T01:23:43;9.10;99.90
22418;DHT22;11376;50.932;4.442;2023-04-19T01:26:08;9.10;99.90
22418;DHT22;11376;50.932;4.442;2023-04-19T01:28:34;9.00;99.90
22418;DHT22;11376;50.932;4.442;2023-04-19T01:31:00;9.00;99.90
22418;DHT22;11376;50.932;4.442;2023-04-19T01:33:25;9.00;99.90
22418;DHT22;11376;50.932;4.442;2023-04-19T01:35:51;9.00;99.90
22418;DHT22;11376;50.932;4.442;2023-04-19T01:38:17;8.90;99.90
22418;DHT22;11376;50.932;4.442;2023-04-19T01:40:43;9.00;99.90
22418;DHT22;11376;50.932;4.442;2023-04-19T01:43:12;9.10;99.90
22418;DHT22;11376;50.932;4.442;2023-04-19T01:45:37;9.10;99.90
22418;DHT22;11376;50.932;4.442;2023-04-19T01:48:03;9.10;99.90
22418;DHT22;11376;50.932;4.442;2023-04-19T01:50:30;9.00;99.90
22418;DHT22;11376;50.932;4.442;2023-04-19T01:52:56;9.20;99.90
22418;DHT22;11376;50.932;4.442;2023-04-19T01:55:21;9.20;99.90
22418;DHT22;11376;50.932;4.442;2023-04-19T01:57:47;9.30;99.90
22418;DHT22;11376;50.932;4.442;2023-04-19T02:00:13;9.40;99.90
22418;DHT22;11376;50.932;4.442;2023-04-19T02:02:40;9.50;99.90
22418;DHT22;11376;50.932;4.442;2023-04-19T02:05:06;9.60;99.90
22418;DHT22;11376;50.932;4.442;2023-04-19T02:07:32;9.70;99.90
22418;DHT22;11376;50.932;4.442;2023-04-19T02:09:58;9.80;99.90
22418;DHT22;11376;50.932;4.442;2023-04-19T02:12:26;9.80;99.90
22418;DHT22;11376;50.932;4.442;2023-04-19T02:14:53;9.90;99.90
22418;DHT22;11376;50.932;4.442;2023-04-19T02:17:22;10.00;99.90
22418;DHT22;11376;50.932;4.442;2023-04-19T02:19:47;10.10;99.90
22418;DHT22;11376;50.932;4.442;2023-04-19T02:22:13;10.30;99.90
22418;DHT22;11376;50.932;4.442;2023-04-19T02:24:38;10.30;99.90
22418;DHT22;11376;50.932;4.442;2023-04-19T02:27:04;10.40;99.90
22418;DHT22;11376;50.932;4.442;2023-04-19T02:29:31;10.50;99.90
22418;DHT22;11376;50.932;4.442;2023-04-19T02:31:57;10.60;99.90
22418;DHT22;11376;50.932;4.442;2023-04-19T02:34:23;10.60;99.90
22418;DHT22;11376;50.932;4.442;2023-04-19T02:36:48;10.60;99.90
22418;DHT22;11376;50.932;4.442;2023-04-19T02:39:14;10.70;99.90
22418;DHT22;11376;50.932;4.442;2023-04-19T02:41:41;10.80;99.90
22418;DHT22;11376;50.932;4.442;2023-04-19T02:44:06;10.80;99.90
22418;DHT22;11376;50.932;4.442;2023-04-19T02:46:33;10.90;99.90
22418;DHT22;11376;50.932;4.442;2023-04-19T02:49:01;10.90;99.90
22418;DHT22;11376;50.932;4.442;2023-04-19T02:51:26;10.90;99.90
22418;DHT22;11376;50.932;4.442;2023-04-19T02:53:52;10.90;99.90
22418;DHT22;11376;50.932;4.442;2023-04-19T02:56:18;10.90;99.90
22418;DHT22;11376;50.932;4.442;2023-04-19T02:58:43;11.00;99.90
22418;DHT22;11376;50.932;4.442;2023-04-19T03:01:09;11.10;99.90
22418;DHT22;11376;50.932;4.442;2023-04-19T03:03:35;11.20;99.90
22418;DHT22;11376;50.932;4.442;2023-04-19T03:06:01;11.20;99.90
22418;DHT22;11376;50.932;4.442;2023-04-19T03:08:26;11.20;99.90
22418;DHT22;11376;50.932;4.442;2023-04-19T03:10:52;11.20;99.90
22418;DHT22;11376;50.932;4.442;2023-04-19T03:13:18;11.10;99.90
22418;DHT22;11376;50.932;4.442;2023-04-19T03:15:43;11.00;99.90
22418;DHT22;11376;50.932;4.442;2023-04-19T03:18:09;10.90;99.90
22418;DHT22;11376;50.932;4.442;2023-04-19T03:20:34;10.80;99.90
22418;DHT22;11376;50.932;4.442;2023-04-19T03:23:00;10.80;99.90
22418;DHT22;11376;50.932;4.442;2023-04-19T03:25:26;10.90;99.90
22418;DHT22;11376;50.932;4.442;2023-04-19T03:27:52;10.90;99.90
22418;DHT22;11376;50.932;4.442;2023-04-19T03:30:17;10.90;99.90
22418;DHT22;11376;50.932;4.442;2023-04-19T03:32:43;10.90;99.90
22418;DHT22;11376;50.932;4.442;2023-04-19T03:35:09;11.00;99.90
22418;DHT22;11376;50.932;4.442;2023-04-19T03:37:35;11.00;99.90
22418;DHT22;11376;50.932;4.442;2023-04-19T03:40:00;10.90;99.90
22418;DHT22;11376;50.932;4.442;2023-04-19T03:42:26;10.90;99.90
22418;DHT22;11376;50.932;4.442;2023-04-19T03:44:51;11.00;99.90
22418;DHT22;11376;50.932;4.442;2023-04-19T03:47:17;10.90;99.90
22418;DHT22;11376;50.932;4.442;2023-04-19T03:49:42;10.90;99.90
22418;DHT22;11376;50.932;4.442;2023-04-19T03:52:08;10.80;99.90
22418;DHT22;11376;50.932;4.442;2023-04-19T03:54:34;10.90;99.90
22418;DHT22;11376;50.932;4.442;2023-04-19T03:56:59;10.90;99.90
22418;DHT22;11376;50.932;4.442;2023-04-19T03:59:25;11.00;99.90
22418;DHT22;11376;50.932;4.442;2023-04-19T04:01:51;11.00;99.90
22418;DHT22;11376;50.932;4.442;2023-04-19T04:04:16;10.90;99.90
22418;DHT22;11376;50.932;4.442;2023-04-19T04:06:42;10.80;99.90
22418;DHT22;11376;50.932;4.442;2023-04-19T04:09:07;10.70;99.90
22418;DHT22;11376;50.932;4.442;2023-04-19T04:11:33;10.60;99.90
22418;DHT22;11376;50.932;4.442;2023-04-19T04:13:58;10.60;99.90
22418;DHT22;11376;50.932;4.442;2023-04-19T04:16:24;10.60;99.90
22418;DHT22;11376;50.932;4.442;2023-04-19T04:18:49;10.50;99.90
22418;DHT22;11376;50.932;4.442;2023-04-19T04:21:15;10.50;99.90
22418;DHT22;11376;50.932;4.442;2023-04-19T04:23:41;10.40;99.90
22418;DHT22;11376;50.932;4.442;2023-04-19T04:26:06;10.30;99.90
22418;DHT22;11376;50.932;4.442;2023-04-19T04:28:34;10.20;99.90
22418;DHT22;11376;50.932;4.442;2023-04-19T04:30:59;10.10;99.90
22418;DHT22;11376;50.932;4.442;2023-04-19T04:33:26;10.00;99.90
22418;DHT22;11376;50.932;4.442;2023-04-19T04:35:53;9.90;99.90
22418;DHT22;11376;50.932;4.442;2023-04-19T04:38:19;9.80;99.90
22418;DHT22;11376;50.932;4.442;2023-04-19T04:40:49;9.90;99.90
22418;DHT22;11376;50.932;4.442;2023-04-19T04:43:18;9.90;99.90
22418;DHT22;11376;50.932;4.442;2023-04-19T04:45:45;9.80;99.90
22418;DHT22;11376;50.932;4.442;2023-04-19T04:48:11;9.90;99.90
22418;DHT22;11376;50.932;4.442;2023-04-19T04:50:36;9.80;99.90
22418;DHT22;11376;50.932;4.442;2023-04-19T04:53:02;9.70;99.90
22418;DHT22;11376;50.932;4.442;2023-04-19T04:55:27;9.70;99.90
22418;DHT22;11376;50.932;4.442;2023-04-19T04:57:53;9.60;99.90
22418;DHT22;11376;50.932;4.442;2023-04-19T05:00:19;9.60;99.90
22418;DHT22;11376;50.932;4.442;2023-04-19T05:02:44;9.70;99.90
22418;DHT22;11376;50.932;4.442;2023-04-19T05:05:10;9.60;99.90
22418;DHT22;11376;50.932;4.442;2023-04-19T05:07:35;9.60;99.90
22418;DHT22;11376;50.932;4.442;2023-04-19T05:10:01;9.70;99.90
22418;DHT22;11376;50.932;4.442;2023-04-19T05:12:27;9.70;99.90
22418;DHT22;11376;50.932;4.442;2023-04-19T05:14:52;9.70;99.90
22418;DHT22;11376;50.932;4.442;2023-04-19T05:17:18;9.70;99.90
22418;DHT22;11376;50.932;4.442;2023-04-19T05:19:43;9.80;99.90
22418;DHT22;11376;50.932;4.442;2023-04-19T05:22:10;9.90;99.90
22418;DHT22;11376;50.932;4.442;2023-04-19T05:24:36;9.80;99.90
22418;DHT22;11376;50.932;4.442;2023-04-19T05:27:01;9.80;99.90
22418;DHT22;11376;50.932;4.442;2023-04-19T05:29:27;9.90;99.90
22418;DHT22;11376;50.932;4.442;2023-04-19T05:31:52;9.90;99.90
22418;DHT22;11376;50.932;4.442;2023-04-19T05:34:18;10.00;99.90
22418;DHT22;11376;50.932;4.442;2023-04-19T05:36:44;10.00;99.90
22418;DHT22;11376;50.932;4.442;2023-04-19T05:39:09;10.00;99.90
22418;DHT22;11376;50.932;4.442;2023-04-19T05:41:35;10.00;99.90
22418;DHT22;11376;50.932;4.442;2023-04-19T05:44:00;10.00;99.90
22418;DHT22;11376;50.932;4.442;2023-04-19T05:46:26;10.00;99.90
22418;DHT22;11376;50.932;4.442;2023-04-19T05:48:51;10.00;99.90
22418;DHT22;11376;50.932;4.442;2023-04-19T05:51:17;10.10;99.90
22418;DHT22;11376;50.932;4.442;2023-04-19T05:53:44;10.20;99.90
22418;DHT22;11376;50.932;4.442;2023-04-19T05:56:10;10.50;99.90
22418;DHT22;11376;50.932;4.442;2023-04-19T05:58:36;10.60;99.90
22418;DHT22;11376;50.932;4.442;2023-04-19T06:01:01;10.70;99.90
22418;DHT22;11376;50.932;4.442;2023-04-19T06:03:28;10.80;99.90
22418;DHT22;11376;50.932;4.442;2023-04-19T06:05:53;11.00;99.90
22418;DHT22;11376;50.932;4.442;2023-04-19T06:08:19;11.20;99.90
22418;DHT22;11376;50.932;4.442;2023-04-19T06:10:45;11.30;99.90
22418;DHT22;11376;50.932;4.442;2023-04-19T06:13:12;11.50;99.90
22418;DHT22;11376;50.932;4.442;2023-04-19T06:15:38;11.60;99.90
22418;DHT22;11376;50.932;4.442;2023-04-19T06:18:04;11.70;99.90
22418;DHT22;11376;50.932;4.442;2023-04-19T06:20:35;11.60;99.90
22418;DHT22;11376;50.932;4.442;2023-04-19T06:23:00;11.70;99.90
22418;DHT22;11376;50.932;4.442;2023-04-19T06:25:26;11.80;99.90
22418;DHT22;11376;50.932;4.442;2023-04-19T06:27:51;11.90;99.90
22418;DHT22;11376;50.932;4.442;2023-04-19T06:30:17;12.00;99.90
22418;DHT22;11376;50.932;4.442;2023-04-19T06:32:43;12.00;99.90
22418;DHT22;11376;50.932;4.442;2023-04-19T06:35:08;12.30;99.90
22418;DHT22;11376;50.932;4.442;2023-04-19T06:37:34;12.50;99.90
22418;DHT22;11376;50.932;4.442;2023-04-19T06:40:00;12.60;99.90
22418;DHT22;11376;50.932;4.442;2023-04-19T06:42:25;12.80;99.90
22418;DHT22;11376;50.932;4.442;2023-04-19T06:44:52;12.90;99.90
22418;DHT22;11376;50.932;4.442;2023-04-19T06:47:17;12.80;99.90
22418;DHT22;11376;50.932;4.442;2023-04-19T06:49:43;12.90;99.90
22418;DHT22;11376;50.932;4.442;2023-04-19T06:52:09;13.10;99.90
22418;DHT22;11376;50.932;4.442;2023-04-19T06:54:34;13.20;99.90
22418;DHT22;11376;50.932;4.442;2023-04-19T06:57:00;13.10;99.90
22418;DHT22;11376;50.932;4.442;2023-04-19T06:59:27;13.30;99.90
22418;DHT22;11376;50.932;4.442;2023-04-19T07:01:53;13.50;99.90
22418;DHT22;11376;50.932;4.442;2023-04-19T07:04:18;13.50;99.90
22418;DHT22;11376;50.932;4.442;2023-04-19T07:06:47;13.50;99.90
22418;DHT22;11376;50.932;4.442;2023-04-19T07:09:13;13.70;99.90
22418;DHT22;11376;50.932;4.442;2023-04-19T07:11:38;13.80;99.90
22418;DHT22;11376;50.932;4.442;2023-04-19T07:14:04;13.90;99.90
22418;DHT22;11376;50.932;4.442;2023-04-19T07:16:29;13.90;99.90
22418;DHT22;11376;50.932;4.442;2023-04-19T07:18:55;14.00;99.90
22418;DHT22;11376;50.932;4.442;2023-04-19T07:21:21;14.00;99.90
22418;DHT22;11376;50.932;4.442;2023-04-19T07:23:49;14.00;99.90
22418;DHT22;11376;50.932;4.442;2023-04-19T07:26:14;13.90;99.90
22418;DHT22;11376;50.932;4.442;2023-04-19T07:28:40;13.90;99.90
22418;DHT22;11376;50.932;4.442;2023-04-19T07:31:05;14.10;99.90
22418;DHT22;11376;50.932;4.442;2023-04-19T07:33:31;14.40;99.90
22418;DHT22;11376;50.932;4.442;2023-04-19T07:35:57;14.40;99.90
22418;DHT22;11376;50.932;4.442;2023-04-19T07:38:22;14.50;99.90
22418;DHT22;11376;50.932;4.442;2023-04-19T07:40:49;14.60;99.90
22418;DHT22;11376;50.932;4.442;2023-04-19T07:43:15;14.70;99.90
22418;DHT22;11376;50.932;4.442;2023-04-19T07:45:40;14.60;99.90
22418;DHT22;11376;50.932;4.442;2023-04-19T07:48:06;14.60;99.90
22418;DHT22;11376;50.932;4.442;2023-04-19T07:50:32;14.50;99.90
22418;DHT22;11376;50.932;4.442;2023-04-19T07:52:57;14.60;99.90
22418;DHT22;11376;50.932;4.442;2023-04-19T07:55:23;14.60;99.90
22418;DHT22;11376;50.932;4.442;2023-04-19T07:57:49;14.60;99.90
22418;DHT22;11376;50.932;4.442;2023-04-19T08:00:15;14.50;99.90
22418;DHT22;11376;50.932;4.442;2023-04-19T08:02:47;14.40;99.90
22418;DHT22;11376;50.932;4.442;2023-04-19T08:05:14;14.50;99.90
22418;DHT22;11376;50.932;4.442;2023-04-19T08:07:44;14.40;99.90
22418;DHT22;11376;50.932;4.442;2023-04-19T08:10:10;14.50;99.90
22418;DHT22;11376;50.932;4.442;2023-04-19T08:12:37;14.50;99.90
22418;DHT22;11376;50.932;4.442;2023-04-19T08:15:04;14.50;99.90
22418;DHT22;11376;50.932;4.442;2023-04-19T08:17:31;14.60;99.90
22418;DHT22;11376;50.932;4.442;2023-04-19T08:19:57;14.60;99.90
22418;DHT22;11376;50.932;4.442;2023-04-19T08:22:22;14.60;99.90
22418;DHT22;11376;50.932;4.442;2023-04-19T08:24:48;14.70;99.90
22418;DHT22;11376;50.932;4.442;2023-04-19T08:27:14;14.90;99.90
22418;DHT22;11376;50.932;4.442;2023-04-19T08:29:40;15.00;99.90
22418;DHT22;11376;50.932;4.442;2023-04-19T08:32:06;15.00;99.90
22418;DHT22;11376;50.932;4.442;2023-04-19T08:34:35;15.00;99.90
22418;DHT22;11376;50.932;4.442;2023-04-19T08:37:04;15.10;99.90
22418;DHT22;11376;50.932;4.442;2023-04-19T08:39:32;15.40;99.90
22418;DHT22;11376;50.932;4.442;2023-04-19T08:42:06;15.50;99.90
22418;DHT22;11376;50.932;4.442;2023-04-19T08:44:32;15.60;99.90
22418;DHT22;11376;50.932;4.442;2023-04-19T08:46:59;15.60;99.90
22418;DHT22;11376;50.932;4.442;2023-04-19T08:49:27;15.70;99.90
22418;DHT22;11376;50.932;4.442;2023-04-19T08:51:54;15.80;99.90
22418;DHT22;11376;50.932;4.442;2023-04-19T08:54:22;16.00;99.90
22418;DHT22;11376;50.932;4.442;2023-04-19T08:56:48;16.10;99.90
22418;DHT22;11376;50.932;4.442;2023-04-19T08:59:14;16.00;99.90
22418;DHT22;11376;50.932;4.442;2023-04-19T09:01:40;16.10;99.90
22418;DHT22;11376;50.932;4.442;2023-04-19T09:04:06;16.30;99.90
22418;DHT22;11376;50.932;4.442;2023-04-19T09:06:36;16.40;99.90
22418;DHT22;11376;50.932;4.442;2023-04-19T09:09:26;16.40;99.90
22418;DHT22;11376;50.932;4.442;2023-04-19T09:11:52;16.30;99.90
22418;DHT22;11376;50.932;4.442;2023-04-19T09:14:19;16.30;99.90
22418;DHT22;11376;50.932;4.442;2023-04-19T09:16:45;16.40;99.90
22418;DHT22;11376;50.932;4.442;2023-04-19T09:19:11;16.40;99.90
22418;DHT22;11376;50.932;4.442;2023-04-19T09:21:38;16.40;99.90
22418;DHT22;11376;50.932;4.442;2023-04-19T09:24:04;16.40;99.90
22418;DHT22;11376;50.932;4.442;2023-04-19T09:26:30;16.60;99.90
22418;DHT22;11376;50.932;4.442;2023-04-19T09:29:01;16.80;99.90
22418;DHT22;11376;50.932;4.442;2023-04-19T09:31:35;16.90;99.90
22418;DHT22;11376;50.932;4.442;2023-04-19T09:34:15;16.90;99.90
22418;DHT22;11376;50.932;4.442;2023-04-19T09:36:41;16.90;99.90
22418;DHT22;11376;50.932;4.442;2023-04-19T09:39:06;16.90;99.90
22418;DHT22;11376;50.932;4.442;2023-04-19T09:41:32;17.30;99.90
22418;DHT22;11376;50.932;4.442;2023-04-19T09:44:11;17.40;99.90
22418;DHT22;11376;50.932;4.442;2023-04-19T09:46:40;17.40;99.90
22418;DHT22;11376;50.932;4.442;2023-04-19T09:51:43;17.50;99.90
22418;DHT22;11376;50.932;4.442;2023-04-19T09:54:10;17.50;99.90
22418;DHT22;11376;50.932;4.442;2023-04-19T09:56:37;17.40;99.90
22418;DHT22;11376;50.932;4.442;2023-04-19T09:59:03;17.40;99.90
22418;DHT22;11376;50.932;4.442;2023-04-19T10:01:46;17.40;99.90
22418;DHT22;11376;50.932;4.442;2023-04-19T10:04:14;17.60;99.90
22418;DHT22;11376;50.932;4.442;2023-04-19T10:06:51;17.40;99.90
22418;DHT22;11376;50.932;4.442;2023-04-19T10:09:18;17.40;99.90
22418;DHT22;11376;50.932;4.442;2023-04-19T10:11:49;17.60;99.90
22418;DHT22;11376;50.932;4.442;2023-04-19T10:14:16;17.90;99.90
22418;DHT22;11376;50.932;4.442;2023-04-19T10:16:44;17.80;99.90
22418;DHT22;11376;50.932;4.442;2023-04-19T10:19:12;17.90;99.90
22418;DHT22;11376;50.932;4.442;2023-04-19T10:21:40;18.10;99.90
22418;DHT22;11376;50.932;4.442;2023-04-19T10:24:08;18.30;99.90
22418;DHT22;11376;50.932;4.442;2023-04-19T10:29:59;18.80;99.90
22418;DHT22;11376;50.932;4.442;2023-04-19T10:32:39;18.70;99.90
22418;DHT22;11376;50.932;4.442;2023-04-19T10:35:23;19.00;99.90
22418;DHT22;11376;50.932;4.442;2023-04-19T10:40:58;19.90;99.90
22418;DHT22;11376;50.932;4.442;2023-04-19T10:43:32;20.20;99.90
22418;DHT22;11376;50.932;4.442;2023-04-19T10:48:32;21.80;99.90
22418;DHT22;11376;50.932;4.442;2023-04-19T10:51:14;22.20;99.90
22418;DHT22;11376;50.932;4.442;2023-04-19T10:56:15;21.30;99.90
22418;DHT22;11376;50.932;4.442;2023-04-19T11:06:36;21.80;99.90
22418;DHT22;11376;50.932;4.442;2023-04-19T11:09:02;21.60;99.90
22418;DHT22;11376;50.932;4.442;2023-04-19T11:11:36;21.80;99.90
22418;DHT22;11376;50.932;4.442;2023-04-19T11:14:02;21.80;99.90
22418;DHT22;11376;50.932;4.442;2023-04-19T11:16:29;22.60;99.90
22418;DHT22;11376;50.932;4.442;2023-04-19T11:18:55;23.70;99.90
22418;DHT22;11376;50.932;4.442;2023-04-19T11:21:20;25.90;99.90
22418;DHT22;11376;50.932;4.442;2023-04-19T11:23:46;27.30;94.00
22418;DHT22;11376;50.932;4.442;2023-04-19T11:26:13;27.30;91.10
22418;DHT22;11376;50.932;4.442;2023-04-19T11:28:39;27.00;90.20
22418;DHT22;11376;50.932;4.442;2023-04-19T11:31:05;25.40;91.40
22418;DHT22;11376;50.932;4.442;2023-04-19T11:33:34;26.20;90.90
22418;DHT22;11376;50.932;4.442;2023-04-19T11:36:00;27.30;87.00
22418;DHT22;11376;50.932;4.442;2023-04-19T11:38:27;28.30;83.40
22418;DHT22;11376;50.932;4.442;2023-04-19T11:41:03;29.80;72.10
22418;DHT22;11376;50.932;4.442;2023-04-19T11:43:35;30.30;67.70
22418;DHT22;11376;50.932;4.442;2023-04-19T11:46:08;29.90;65.70
22418;DHT22;11376;50.932;4.442;2023-04-19T11:48:34;28.10;66.40
22418;DHT22;11376;50.932;4.442;2023-04-19T11:51:01;28.30;64.50
22418;DHT22;11376;50.932;4.442;2023-04-19T11:53:28;29.50;61.40
22418;DHT22;11376;50.932;4.442;2023-04-19T11:55:56;30.50;57.10
22418;DHT22;11376;50.932;4.442;2023-04-19T11:58:30;32.00;54.40
22418;DHT22;11376;50.932;4.442;2023-04-19T12:01:09;32.80;50.00
22418;DHT22;11376;50.932;4.442;2023-04-19T12:03:52;33.50;47.20
22418;DHT22;11376;50.932;4.442;2023-04-19T12:06:26;32.60;47.10
22418;DHT22;11376;50.932;4.442;2023-04-19T12:08:53;32.70;44.30
22418;DHT22;11376;50.932;4.442;2023-04-19T12:11:23;33.10;45.10
22418;DHT22;11376;50.932;4.442;2023-04-19T12:14:11;32.70;43.90
22418;DHT22;11376;50.932;4.442;2023-04-19T12:16:37;32.30;43.10
22418;DHT22;11376;50.932;4.442;2023-04-19T12:19:14;31.30;44.50
22418;DHT22;11376;50.932;4.442;2023-04-19T12:21:42;31.50;44.30
22418;DHT22;11376;50.932;4.442;2023-04-19T12:24:08;32.10;42.70
22418;DHT22;11376;50.932;4.442;2023-04-19T12:26:34;32.00;41.50
22418;DHT22;11376;50.932;4.442;2023-04-19T12:29:01;31.50;41.50
22418;DHT22;11376;50.932;4.442;2023-04-19T12:31:27;31.90;40.50
22418;DHT22;11376;50.932;4.442;2023-04-19T12:33:52;33.00;38.10
22418;DHT22;11376;50.932;4.442;2023-04-19T12:36:18;34.30;37.40
22418;DHT22;11376;50.932;4.442;2023-04-19T12:38:44;34.50;36.10
22418;DHT22;11376;50.932;4.442;2023-04-19T12:41:09;33.70;36.00
22418;DHT22;11376;50.932;4.442;2023-04-19T12:43:35;32.90;36.10
22418;DHT22;11376;50.932;4.442;2023-04-19T12:46:01;32.60;35.00
22418;DHT22;11376;50.932;4.442;2023-04-19T12:48:27;32.40;36.40
22418;DHT22;11376;50.932;4.442;2023-04-19T12:50:53;32.30;34.90
22418;DHT22;11376;50.932;4.442;2023-04-19T12:53:19;32.20;34.10
22418;DHT22;11376;50.932;4.442;2023-04-19T12:55:46;31.80;34.20
22418;DHT22;11376;50.932;4.442;2023-04-19T12:58:15;31.20;34.70
22418;DHT22;11376;50.932;4.442;2023-04-19T13:00:42;30.50;35.80
22418;DHT22;11376;50.932;4.442;2023-04-19T13:03:07;30.70;36.00
22418;DHT22;11376;50.932;4.442;2023-04-19T13:05:33;30.80;35.00
22418;DHT22;11376;50.932;4.442;2023-04-19T13:07:59;31.00;33.70
22418;DHT22;11376;50.932;4.442;2023-04-19T13:10:25;31.20;34.10
22418;DHT22;11376;50.932;4.442;2023-04-19T13:12:51;31.40;33.60
22418;DHT22;11376;50.932;4.442;2023-04-19T13:15:16;32.00;32.80
22418;DHT22;11376;50.932;4.442;2023-04-19T13:17:42;32.10;31.90
22418;DHT22;11376;50.932;4.442;2023-04-19T13:20:08;32.80;31.50
22418;DHT22;11376;50.932;4.442;2023-04-19T13:22:34;32.90;30.30
22418;DHT22;11376;50.932;4.442;2023-04-19T13:25:00;33.10;30.00
22418;DHT22;11376;50.932;4.442;2023-04-19T13:27:25;33.00;30.00
22418;DHT22;11376;50.932;4.442;2023-04-19T13:29:55;32.50;29.80
22418;DHT22;11376;50.932;4.442;2023-04-19T13:32:21;33.70;29.70
22418;DHT22;11376;50.932;4.442;2023-04-19T13:34:46;34.20;28.30
22418;DHT22;11376;50.932;4.442;2023-04-19T13:37:12;34.40;27.50
22418;DHT22;11376;50.932;4.442;2023-04-19T13:39:38;33.90;27.90
22418;DHT22;11376;50.932;4.442;2023-04-19T13:42:04;33.80;27.70
22418;DHT22;11376;50.932;4.442;2023-04-19T13:44:30;33.40;27.70
22418;DHT22;11376;50.932;4.442;2023-04-19T13:46:55;32.50;28.20
22418;DHT22;11376;50.932;4.442;2023-04-19T13:49:21;32.50;27.80
22418;DHT22;11376;50.932;4.442;2023-04-19T13:51:47;32.70;27.70
22418;DHT22;11376;50.932;4.442;2023-04-19T13:54:13;32.20;28.30
22418;DHT22;11376;50.932;4.442;2023-04-19T13:56:39;31.70;28.00
22418;DHT22;11376;50.932;4.442;2023-04-19T13:59:04;32.00;27.10
22418;DHT22;11376;50.932;4.442;2023-04-19T14:01:30;31.50;28.20
22418;DHT22;11376;50.932;4.442;2023-04-19T14:03:56;31.40;28.30
22418;DHT22;11376;50.932;4.442;2023-04-19T14:06:21;31.40;27.80
22418;DHT22;11376;50.932;4.442;2023-04-19T14:08:47;31.00;28.20
22418;DHT22;11376;50.932;4.442;2023-04-19T14:11:12;30.50;28.60
22418;DHT22;11376;50.932;4.442;2023-04-19T14:13:38;31.00;27.90
22418;DHT22;11376;50.932;4.442;2023-04-19T14:16:04;31.10;28.00
22418;DHT22;11376;50.932;4.442;2023-04-19T14:18:30;30.80;28.30
22418;DHT22;11376;50.932;4.442;2023-04-19T14:20:55;30.60;28.50
22418;DHT22;11376;50.932;4.442;2023-04-19T14:23:21;31.00;28.20
22418;DHT22;11376;50.932;4.442;2023-04-19T14:25:47;31.20;27.30
22418;DHT22;11376;50.932;4.442;2023-04-19T14:28:12;30.60;27.70
22418;DHT22;11376;50.932;4.442;2023-04-19T14:30:39;30.10;27.90
22418;DHT22;11376;50.932;4.442;2023-04-19T14:33:04;29.30;27.90
22418;DHT22;11376;50.932;4.442;2023-04-19T14:35:30;28.40;29.40
22418;DHT22;11376;50.932;4.442;2023-04-19T14:37:55;27.30;29.10
22418;DHT22;11376;50.932;4.442;2023-04-19T14:40:22;26.80;29.80
22418;DHT22;11376;50.932;4.442;2023-04-19T14:42:47;26.60;30.30
22418;DHT22;11376;50.932;4.442;2023-04-19T14:45:13;26.40;31.20
22418;DHT22;11376;50.932;4.442;2023-04-19T14:47:39;26.10;30.80
22418;DHT22;11376;50.932;4.442;2023-04-19T14:50:05;25.80;31.40
22418;DHT22;11376;50.932;4.442;2023-04-19T14:52:31;25.70;30.90
22418;DHT22;11376;50.932;4.442;2023-04-19T14:54:56;24.80;31.30
22418;DHT22;11376;50.932;4.442;2023-04-19T14:57:24;24.30;32.10
22418;DHT22;11376;50.932;4.442;2023-04-19T14:59:53;24.30;31.90
22418;DHT22;11376;50.932;4.442;2023-04-19T15:02:25;23.80;32.60
22418;DHT22;11376;50.932;4.442;2023-04-19T15:04:51;23.40;33.40
22418;DHT22;11376;50.932;4.442;2023-04-19T15:07:17;23.30;34.00
22418;DHT22;11376;50.932;4.442;2023-04-19T15:09:42;22.80;33.80
22418;DHT22;11376;50.932;4.442;2023-04-19T15:12:08;22.60;35.50
22418;DHT22;11376;50.932;4.442;2023-04-19T15:14:33;22.10;35.10
22418;DHT22;11376;50.932;4.442;2023-04-19T15:16:59;21.90;34.60
22418;DHT22;11376;50.932;4.442;2023-04-19T15:19:25;21.90;34.20
22418;DHT22;11376;50.932;4.442;2023-04-19T15:21:51;21.90;34.20
22418;DHT22;11376;50.932;4.442;2023-04-19T15:24:16;21.70;33.40
22418;DHT22;11376;50.932;4.442;2023-04-19T15:26:42;21.60;33.20
22418;DHT22;11376;50.932;4.442;2023-04-19T15:29:08;21.50;33.70
22418;DHT22;11376;50.932;4.442;2023-04-19T15:31:33;21.60;34.30
22418;DHT22;11376;50.932;4.442;2023-04-19T15:34:01;21.90;34.40
22418;DHT22;11376;50.932;4.442;2023-04-19T15:36:27;22.20;33.00
22418;DHT22;11376;50.932;4.442;2023-04-19T15:38:53;22.40;33.40
22418;DHT22;11376;50.932;4.442;2023-04-19T15:41:18;22.80;33.00
22418;DHT22;11376;50.932;4.442;2023-04-19T15:43:44;23.00;32.60
22418;DHT22;11376;50.932;4.442;2023-04-19T15:46:14;23.50;32.20
22418;DHT22;11376;50.932;4.442;2023-04-19T15:48:40;23.70;32.20
22418;DHT22;11376;50.932;4.442;2023-04-19T15:51:06;24.00;32.70
22418;DHT22;11376;50.932;4.442;2023-04-19T15:53:33;23.40;33.60